sensor_id;sensor_type;location;lat;lon;timestamp;P1;durP1;ratioP1;P2;durP2;ratioP2
73331;SDS011;61560;33.718;73.040;2022-08-07T00:01:45;43.25;;;24.05;;
73331;SDS011;61560;33.718;73.040;2022-08-07T00:04:12;45.80;;;25.38;;
73331;SDS011;61560;33.718;73.040;2022-08-07T00:06:39;40.03;;;21.25;;
73331;SDS011;61560;33.718;73.040;2022-08-07T00:09:05;41.60;;;22.52;;
73331;SDS011;61560;33.718;73.040;2022-08-07T00:11:32;42.38;;;24.08;;
73331;SDS011;61560;33.718;73.040;2022-08-07T00:13:58;43.45;;;23.98;;
73331;SDS011;61560;33.718;73.040;2022-08-07T00:16:25;42.17;;;22.50;;
73331;SDS011;61560;33.718;73.040;2022-08-07T00:18:52;41.60;;;21.90;;
73331;SDS011;61560;33.718;73.040;2022-08-07T00:21:18;45.40;;;23.90;;
73331;SDS011;61560;33.718;73.040;2022-08-07T00:23:45;42.85;;;23.48;;
73331;SDS011;61560;33.718;73.040;2022-08-07T00:26:11;45.88;;;24.02;;
73331;SDS011;61560;33.718;73.040;2022-08-07T00:28:38;43.38;;;22.35;;
73331;SDS011;61560;33.718;73.040;2022-08-07T00:31:07;40.95;;;22.45;;
73331;SDS011;61560;33.718;73.040;2022-08-07T00:33:35;39.13;;;21.90;;
73331;SDS011;61560;33.718;73.040;2022-08-07T00:36:04;43.90;;;22.48;;
73331;SDS011;61560;33.718;73.040;2022-08-07T00:38:32;44.85;;;23.02;;
73331;SDS011;61560;33.718;73.040;2022-08-07T00:41:01;42.90;;;23.02;;
73331;SDS011;61560;33.718;73.040;2022-08-07T00:43:49;45.17;;;24.00;;
73331;SDS011;61560;33.718;73.040;2022-08-07T00:46:15;44.20;;;24.30;;
73331;SDS011;61560;33.718;73.040;2022-08-07T00:48:42;45.78;;;24.38;;
73331;SDS011;61560;33.718;73.040;2022-08-07T00:51:09;45.10;;;23.40;;
73331;SDS011;61560;33.718;73.040;2022-08-07T00:53:35;45.97;;;24.38;;
73331;SDS011;61560;33.718;73.040;2022-08-07T00:56:03;44.53;;;23.60;;
73331;SDS011;61560;33.718;73.040;2022-08-07T00:58:30;48.58;;;23.58;;
73331;SDS011;61560;33.718;73.040;2022-08-07T01:00:58;42.65;;;23.08;;
73331;SDS011;61560;33.718;73.040;2022-08-07T01:03:24;47.75;;;23.73;;
73331;SDS011;61560;33.718;73.040;2022-08-07T01:05:51;45.63;;;23.45;;
73331;SDS011;61560;33.718;73.040;2022-08-07T01:08:20;44.75;;;23.88;;
73331;SDS011;61560;33.718;73.040;2022-08-07T01:10:48;44.70;;;24.38;;
73331;SDS011;61560;33.718;73.040;2022-08-07T01:13:15;47.80;;;25.98;;
73331;SDS011;61560;33.718;73.040;2022-08-07T01:15:43;51.88;;;26.15;;
73331;SDS011;61560;33.718;73.040;2022-08-07T01:18:11;49.00;;;25.17;;
73331;SDS011;61560;33.718;73.040;2022-08-07T01:20:41;49.47;;;25.20;;
73331;SDS011;61560;33.718;73.040;2022-08-07T01:23:11;43.38;;;24.38;;
73331;SDS011;61560;33.718;73.040;2022-08-07T01:25:39;45.50;;;25.27;;
73331;SDS011;61560;33.718;73.040;2022-08-07T01:28:06;42.72;;;23.80;;
73331;SDS011;61560;33.718;73.040;2022-08-07T01:30:34;49.95;;;25.17;;
73331;SDS011;61560;33.718;73.040;2022-08-07T01:33:04;44.78;;;24.23;;
73331;SDS011;61560;33.718;73.040;2022-08-07T01:35:30;49.45;;;24.38;;
73331;SDS011;61560;33.718;73.040;2022-08-07T01:37:59;47.47;;;24.27;;
73331;SDS011;61560;33.718;73.040;2022-08-07T01:40:26;47.15;;;24.27;;
73331;SDS011;61560;33.718;73.040;2022-08-07T01:42:58;43.33;;;23.70;;
73331;SDS011;61560;33.718;73.040;2022-08-07T01:45:29;55.53;;;25.88;;
73331;SDS011;61560;33.718;73.040;2022-08-07T01:48:00;54.35;;;24.98;;
73331;SDS011;61560;33.718;73.040;2022-08-07T01:50:27;55.10;;;26.55;;
73331;SDS011;61560;33.718;73.040;2022-08-07T01:52:56;48.25;;;23.88;;
73331;SDS011;61560;33.718;73.040;2022-08-07T01:55:26;49.55;;;24.35;;
73331;SDS011;61560;33.718;73.040;2022-08-07T01:57:58;41.80;;;22.58;;
73331;SDS011;61560;33.718;73.040;2022-08-07T02:00:26;44.58;;;24.42;;
73331;SDS011;61560;33.718;73.040;2022-08-07T02:03:00;48.03;;;23.67;;
73331;SDS011;61560;33.718;73.040;2022-08-07T02:05:35;47.58;;;23.77;;
73331;SDS011;61560;33.718;73.040;2022-08-07T02:08:05;51.72;;;25.92;;
73331;SDS011;61560;33.718;73.040;2022-08-07T02:10:39;45.35;;;25.27;;
73331;SDS011;61560;33.718;73.040;2022-08-07T02:15:46;51.08;;;26.35;;
73331;SDS011;61560;33.718;73.040;2022-08-07T02:18:18;45.45;;;23.38;;
73331;SDS011;61560;33.718;73.040;2022-08-07T02:20:46;50.15;;;24.77;;
73331;SDS011;61560;33.718;73.040;2022-08-07T02:23:16;49.88;;;24.65;;
73331;SDS011;61560;33.718;73.040;2022-08-07T02:25:48;47.50;;;25.38;;
73331;SDS011;61560;33.718;73.040;2022-08-07T02:28:15;49.00;;;26.45;;
73331;SDS011;61560;33.718;73.040;2022-08-07T02:30:44;49.38;;;25.17;;
73331;SDS011;61560;33.718;73.040;2022-08-07T02:33:15;52.37;;;27.07;;
73331;SDS011;61560;33.718;73.040;2022-08-07T02:35:44;48.17;;;26.85;;
73331;SDS011;61560;33.718;73.040;2022-08-07T02:38:13;45.90;;;25.20;;
73331;SDS011;61560;33.718;73.040;2022-08-07T02:40:43;50.05;;;27.45;;
73331;SDS011;61560;33.718;73.040;2022-08-07T02:43:11;45.97;;;26.27;;
73331;SDS011;61560;33.718;73.040;2022-08-07T02:45:40;49.17;;;26.40;;
73331;SDS011;61560;33.718;73.040;2022-08-07T02:48:10;48.25;;;26.30;;
73331;SDS011;61560;33.718;73.040;2022-08-07T02:50:38;46.83;;;26.75;;
73331;SDS011;61560;33.718;73.040;2022-08-07T02:53:12;52.95;;;29.02;;
73331;SDS011;61560;33.718;73.040;2022-08-07T02:55:47;47.97;;;26.10;;
73331;SDS011;61560;33.718;73.040;2022-08-07T02:58:16;49.35;;;27.15;;
73331;SDS011;61560;33.718;73.040;2022-08-07T03:00:48;46.22;;;25.85;;
73331;SDS011;61560;33.718;73.040;2022-08-07T03:03:18;50.17;;;27.08;;
73331;SDS011;61560;33.718;73.040;2022-08-07T03:05:48;43.80;;;25.15;;
73331;SDS011;61560;33.718;73.040;2022-08-07T03:08:39;45.53;;;26.50;;
73331;SDS011;61560;33.718;73.040;2022-08-07T03:11:07;47.53;;;26.92;;
73331;SDS011;61560;33.718;73.040;2022-08-07T03:13:39;54.88;;;28.80;;
73331;SDS011;61560;33.718;73.040;2022-08-07T03:16:09;43.58;;;25.88;;
73331;SDS011;61560;33.718;73.040;2022-08-07T03:18:37;55.63;;;28.50;;
73331;SDS011;61560;33.718;73.040;2022-08-07T03:21:05;51.88;;;28.77;;
73331;SDS011;61560;33.718;73.040;2022-08-07T03:23:32;45.30;;;26.08;;
73331;SDS011;61560;33.718;73.040;2022-08-07T03:26:00;47.67;;;25.20;;
73331;SDS011;61560;33.718;73.040;2022-08-07T03:28:32;49.17;;;26.70;;
73331;SDS011;61560;33.718;73.040;2022-08-07T03:31:02;51.30;;;26.35;;
73331;SDS011;61560;33.718;73.040;2022-08-07T03:34:00;48.00;;;25.25;;
73331;SDS011;61560;33.718;73.040;2022-08-07T03:36:31;46.83;;;26.40;;
73331;SDS011;61560;33.718;73.040;2022-08-07T03:39:03;43.75;;;24.02;;
73331;SDS011;61560;33.718;73.040;2022-08-07T03:41:34;43.28;;;25.35;;
73331;SDS011;61560;33.718;73.040;2022-08-07T03:44:02;37.88;;;23.55;;
73331;SDS011;61560;33.718;73.040;2022-08-07T03:46:31;41.80;;;25.25;;
73331;SDS011;61560;33.718;73.040;2022-08-07T03:48:58;48.03;;;26.23;;
73331;SDS011;61560;33.718;73.040;2022-08-07T03:51:28;48.28;;;26.60;;
73331;SDS011;61560;33.718;73.040;2022-08-07T03:53:59;48.58;;;26.85;;
73331;SDS011;61560;33.718;73.040;2022-08-07T03:56:26;48.28;;;27.35;;
73331;SDS011;61560;33.718;73.040;2022-08-07T03:58:57;52.58;;;28.60;;
73331;SDS011;61560;33.718;73.040;2022-08-07T04:01:23;53.00;;;29.15;;
73331;SDS011;61560;33.718;73.040;2022-08-07T04:03:54;53.33;;;29.83;;
73331;SDS011;61560;33.718;73.040;2022-08-07T04:06:22;49.13;;;29.48;;
73331;SDS011;61560;33.718;73.040;2022-08-07T04:08:50;53.75;;;30.70;;
73331;SDS011;61560;33.718;73.040;2022-08-07T04:11:18;51.42;;;28.17;;
73331;SDS011;61560;33.718;73.040;2022-08-07T04:13:45;49.95;;;29.17;;
73331;SDS011;61560;33.718;73.040;2022-08-07T04:16:13;47.83;;;27.98;;
73331;SDS011;61560;33.718;73.040;2022-08-07T04:18:43;49.97;;;28.60;;
73331;SDS011;61560;33.718;73.040;2022-08-07T04:21:10;53.47;;;30.92;;
73331;SDS011;61560;33.718;73.040;2022-08-07T04:23:37;52.65;;;28.58;;
73331;SDS011;61560;33.718;73.040;2022-08-07T04:26:06;53.30;;;29.58;;
73331;SDS011;61560;33.718;73.040;2022-08-07T04:28:33;53.33;;;29.00;;
73331;SDS011;61560;33.718;73.040;2022-08-07T04:31:01;51.47;;;29.95;;
73331;SDS011;61560;33.718;73.040;2022-08-07T04:33:32;48.88;;;28.55;;
73331;SDS011;61560;33.718;73.040;2022-08-07T04:36:01;52.50;;;30.50;;
73331;SDS011;61560;33.718;73.040;2022-08-07T04:38:28;52.35;;;28.38;;
73331;SDS011;61560;33.718;73.040;2022-08-07T04:40:56;52.88;;;29.33;;
73331;SDS011;61560;33.718;73.040;2022-08-07T04:43:34;57.70;;;31.38;;
73331;SDS011;61560;33.718;73.040;2022-08-07T04:54:29;54.25;;;26.73;;
73331;SDS011;61560;33.718;73.040;2022-08-07T04:57:08;51.70;;;29.58;;
73331;SDS011;61560;33.718;73.040;2022-08-07T04:59:42;59.55;;;30.60;;
73331;SDS011;61560;33.718;73.040;2022-08-07T05:05:11;54.38;;;29.30;;
73331;SDS011;61560;33.718;73.040;2022-08-07T05:10:38;57.72;;;30.98;;
73331;SDS011;61560;33.718;73.040;2022-08-07T05:13:24;55.28;;;30.00;;
73331;SDS011;61560;33.718;73.040;2022-08-07T05:16:03;55.78;;;30.30;;
73331;SDS011;61560;33.718;73.040;2022-08-07T05:18:55;58.55;;;30.67;;
73331;SDS011;61560;33.718;73.040;2022-08-07T05:21:24;44.17;;;25.75;;
73331;SDS011;61560;33.718;73.040;2022-08-07T05:23:56;50.38;;;26.75;;
73331;SDS011;61560;33.718;73.040;2022-08-07T05:26:31;44.03;;;26.50;;
73331;SDS011;61560;33.718;73.040;2022-08-07T05:29:05;41.88;;;25.23;;
73331;SDS011;61560;33.718;73.040;2022-08-07T05:34:14;45.95;;;25.52;;
73331;SDS011;61560;33.718;73.040;2022-08-07T05:36:49;41.92;;;25.67;;
73331;SDS011;61560;33.718;73.040;2022-08-07T05:39:23;43.63;;;27.55;;
73331;SDS011;61560;33.718;73.040;2022-08-07T05:41:55;42.13;;;26.10;;
73331;SDS011;61560;33.718;73.040;2022-08-07T05:44:24;45.55;;;28.05;;
73331;SDS011;61560;33.718;73.040;2022-08-07T05:46:52;43.67;;;27.88;;
73331;SDS011;61560;33.718;73.040;2022-08-07T05:49:23;49.95;;;28.90;;
73331;SDS011;61560;33.718;73.040;2022-08-07T05:51:53;47.03;;;29.77;;
73331;SDS011;61560;33.718;73.040;2022-08-07T05:54:22;45.50;;;29.58;;
73331;SDS011;61560;33.718;73.040;2022-08-07T05:56:50;41.75;;;26.08;;
73331;SDS011;61560;33.718;73.040;2022-08-07T05:59:18;37.47;;;26.35;;
73331;SDS011;61560;33.718;73.040;2022-08-07T06:01:53;40.60;;;26.67;;
73331;SDS011;61560;33.718;73.040;2022-08-07T06:06:50;40.25;;;25.70;;
73331;SDS011;61560;33.718;73.040;2022-08-07T06:09:19;43.00;;;26.77;;
73331;SDS011;61560;33.718;73.040;2022-08-07T06:11:48;48.47;;;27.58;;
73331;SDS011;61560;33.718;73.040;2022-08-07T06:14:17;50.33;;;28.88;;
73331;SDS011;61560;33.718;73.040;2022-08-07T06:16:46;44.90;;;28.77;;
73331;SDS011;61560;33.718;73.040;2022-08-07T06:19:15;43.40;;;26.67;;
73331;SDS011;61560;33.718;73.040;2022-08-07T06:21:43;45.22;;;27.35;;
73331;SDS011;61560;33.718;73.040;2022-08-07T06:24:12;39.78;;;25.10;;
73331;SDS011;61560;33.718;73.040;2022-08-07T06:26:39;37.53;;;25.30;;
73331;SDS011;61560;33.718;73.040;2022-08-07T06:29:07;42.33;;;25.42;;
73331;SDS011;61560;33.718;73.040;2022-08-07T06:31:37;39.08;;;24.83;;
73331;SDS011;61560;33.718;73.040;2022-08-07T06:34:03;41.40;;;24.40;;
73331;SDS011;61560;33.718;73.040;2022-08-07T06:36:30;40.55;;;24.60;;
73331;SDS011;61560;33.718;73.040;2022-08-07T06:38:57;41.03;;;25.92;;
73331;SDS011;61560;33.718;73.040;2022-08-07T06:44:24;42.25;;;25.17;;
73331;SDS011;61560;33.718;73.040;2022-08-07T06:46:53;41.78;;;24.23;;
73331;SDS011;61560;33.718;73.040;2022-08-07T06:49:20;36.80;;;22.75;;
73331;SDS011;61560;33.718;73.040;2022-08-07T06:51:47;35.35;;;21.98;;
73331;SDS011;61560;33.718;73.040;2022-08-07T06:54:18;35.28;;;21.60;;
73331;SDS011;61560;33.718;73.040;2022-08-07T06:56:46;37.40;;;22.52;;
73331;SDS011;61560;33.718;73.040;2022-08-07T06:59:24;36.10;;;21.42;;
73331;SDS011;61560;33.718;73.040;2022-08-07T07:01:59;39.13;;;22.70;;
73331;SDS011;61560;33.718;73.040;2022-08-07T07:04:27;34.83;;;22.30;;
73331;SDS011;61560;33.718;73.040;2022-08-07T07:06:55;33.05;;;22.05;;
73331;SDS011;61560;33.718;73.040;2022-08-07T07:09:24;34.15;;;21.25;;
73331;SDS011;61560;33.718;73.040;2022-08-07T07:17:13;36.60;;;21.50;;
73331;SDS011;61560;33.718;73.040;2022-08-07T07:19:52;38.25;;;22.27;;
73331;SDS011;61560;33.718;73.040;2022-08-07T07:22:24;32.70;;;21.17;;
73331;SDS011;61560;33.718;73.040;2022-08-07T07:24:53;34.40;;;21.90;;
73331;SDS011;61560;33.718;73.040;2022-08-07T07:27:41;35.55;;;21.63;;
73331;SDS011;61560;33.718;73.040;2022-08-07T07:30:15;32.83;;;22.00;;
73331;SDS011;61560;33.718;73.040;2022-08-07T07:32:42;31.33;;;20.77;;
73331;SDS011;61560;33.718;73.040;2022-08-07T07:35:10;33.35;;;20.60;;
73331;SDS011;61560;33.718;73.040;2022-08-07T07:37:40;28.63;;;20.15;;
73331;SDS011;61560;33.718;73.040;2022-08-07T07:40:11;36.97;;;20.52;;
73331;SDS011;61560;33.718;73.040;2022-08-07T07:42:42;32.78;;;20.85;;
73331;SDS011;61560;33.718;73.040;2022-08-07T07:45:09;33.80;;;21.60;;
73331;SDS011;61560;33.718;73.040;2022-08-07T07:47:40;32.60;;;21.60;;
73331;SDS011;61560;33.718;73.040;2022-08-07T07:50:09;28.85;;;20.73;;
73331;SDS011;61560;33.718;73.040;2022-08-07T07:52:38;40.55;;;21.08;;
73331;SDS011;61560;33.718;73.040;2022-08-07T07:55:07;36.95;;;21.65;;
73331;SDS011;61560;33.718;73.040;2022-08-07T07:57:34;38.70;;;21.40;;
73331;SDS011;61560;33.718;73.040;2022-08-07T08:00:02;33.17;;;20.98;;
73331;SDS011;61560;33.718;73.040;2022-08-07T08:02:37;29.48;;;19.40;;
73331;SDS011;61560;33.718;73.040;2022-08-07T08:05:09;30.90;;;21.13;;
73331;SDS011;61560;33.718;73.040;2022-08-07T08:07:39;35.25;;;20.85;;
73331;SDS011;61560;33.718;73.040;2022-08-07T08:10:08;33.15;;;20.77;;
73331;SDS011;61560;33.718;73.040;2022-08-07T08:12:35;31.60;;;20.45;;
73331;SDS011;61560;33.718;73.040;2022-08-07T08:15:04;29.88;;;19.67;;
73331;SDS011;61560;33.718;73.040;2022-08-07T08:17:31;29.33;;;20.15;;
73331;SDS011;61560;33.718;73.040;2022-08-07T08:20:03;32.30;;;21.42;;
73331;SDS011;61560;33.718;73.040;2022-08-07T08:22:32;33.95;;;19.88;;
73331;SDS011;61560;33.718;73.040;2022-08-07T08:28:14;31.88;;;20.20;;
73331;SDS011;61560;33.718;73.040;2022-08-07T08:31:07;36.88;;;20.63;;
73331;SDS011;61560;33.718;73.040;2022-08-07T08:33:35;29.20;;;20.83;;
73331;SDS011;61560;33.718;73.040;2022-08-07T08:36:04;29.70;;;20.77;;
73331;SDS011;61560;33.718;73.040;2022-08-07T08:38:34;29.00;;;20.00;;
73331;SDS011;61560;33.718;73.040;2022-08-07T08:44:01;37.10;;;19.85;;
73331;SDS011;61560;33.718;73.040;2022-08-07T08:46:49;30.77;;;19.75;;
73331;SDS011;61560;33.718;73.040;2022-08-07T08:49:43;29.92;;;19.75;;
73331;SDS011;61560;33.718;73.040;2022-08-07T08:52:46;31.55;;;19.75;;
73331;SDS011;61560;33.718;73.040;2022-08-07T08:55:24;38.92;;;20.00;;
73331;SDS011;61560;33.718;73.040;2022-08-07T09:01:08;32.78;;;20.15;;
73331;SDS011;61560;33.718;73.040;2022-08-07T09:15:57;34.70;;;19.65;;
73331;SDS011;61560;33.718;73.040;2022-08-07T09:21:02;30.15;;;19.88;;
73331;SDS011;61560;33.718;73.040;2022-08-07T09:26:32;32.45;;;19.58;;
73331;SDS011;61560;33.718;73.040;2022-08-07T09:29:32;30.98;;;19.38;;
73331;SDS011;61560;33.718;73.040;2022-08-07T09:32:16;30.98;;;19.15;;
73331;SDS011;61560;33.718;73.040;2022-08-07T09:37:38;28.00;;;19.00;;
73331;SDS011;61560;33.718;73.040;2022-08-07T09:42:49;27.98;;;17.95;;
73331;SDS011;61560;33.718;73.040;2022-08-07T09:48:40;30.02;;;19.10;;
73331;SDS011;61560;33.718;73.040;2022-08-07T09:51:20;31.60;;;19.38;;
73331;SDS011;61560;33.718;73.040;2022-08-07T09:53:51;31.52;;;20.20;;
73331;SDS011;61560;33.718;73.040;2022-08-07T10:05:08;33.67;;;19.98;;
73331;SDS011;61560;33.718;73.040;2022-08-07T10:13:35;31.00;;;19.67;;
73331;SDS011;61560;33.718;73.040;2022-08-07T10:28:10;32.53;;;20.55;;
73331;SDS011;61560;33.718;73.040;2022-08-07T10:34:18;34.55;;;18.98;;
73331;SDS011;61560;33.718;73.040;2022-08-07T10:37:09;27.75;;;18.02;;
73331;SDS011;61560;33.718;73.040;2022-08-07T10:42:45;33.25;;;18.00;;
73331;SDS011;61560;33.718;73.040;2022-08-07T10:50:47;29.52;;;17.52;;
73331;SDS011;61560;33.718;73.040;2022-08-07T10:53:26;26.08;;;17.42;;
73331;SDS011;61560;33.718;73.040;2022-08-07T10:56:01;33.45;;;18.80;;
73331;SDS011;61560;33.718;73.040;2022-08-07T11:01:24;32.17;;;18.40;;
73331;SDS011;61560;33.718;73.040;2022-08-07T11:07:06;30.10;;;16.90;;
73331;SDS011;61560;33.718;73.040;2022-08-07T11:09:54;29.52;;;17.92;;
73331;SDS011;61560;33.718;73.040;2022-08-07T11:12:31;27.83;;;16.92;;
73331;SDS011;61560;33.718;73.040;2022-08-07T11:15:08;29.65;;;17.15;;
73331;SDS011;61560;33.718;73.040;2022-08-07T11:17:42;29.42;;;17.63;;
73331;SDS011;61560;33.718;73.040;2022-08-07T11:20:21;31.38;;;18.88;;
73331;SDS011;61560;33.718;73.040;2022-08-07T11:25:39;32.75;;;18.08;;
73331;SDS011;61560;33.718;73.040;2022-08-07T11:28:14;25.60;;;16.20;;
73331;SDS011;61560;33.718;73.040;2022-08-07T11:36:16;25.75;;;17.33;;
73331;SDS011;61560;33.718;73.040;2022-08-07T11:58:40;25.60;;;16.58;;
73331;SDS011;61560;33.718;73.040;2022-08-07T12:07:27;28.25;;;17.38;;
73331;SDS011;61560;33.718;73.040;2022-08-07T12:12:46;24.58;;;16.17;;
73331;SDS011;61560;33.718;73.040;2022-08-07T12:15:23;24.35;;;15.98;;
73331;SDS011;61560;33.718;73.040;2022-08-07T12:17:56;27.80;;;16.60;;
73331;SDS011;61560;33.718;73.040;2022-08-07T12:20:32;26.88;;;16.02;;
73331;SDS011;61560;33.718;73.040;2022-08-07T12:25:38;29.00;;;16.58;;
73331;SDS011;61560;33.718;73.040;2022-08-07T12:31:27;27.50;;;16.42;;
73331;SDS011;61560;33.718;73.040;2022-08-07T12:34:06;24.88;;;16.77;;
73331;SDS011;61560;33.718;73.040;2022-08-07T12:36:36;28.65;;;17.17;;
73331;SDS011;61560;33.718;73.040;2022-08-07T12:39:03;26.67;;;15.80;;
73331;SDS011;61560;33.718;73.040;2022-08-07T12:41:32;22.15;;;15.65;;
73331;SDS011;61560;33.718;73.040;2022-08-07T12:44:03;22.83;;;15.32;;
73331;SDS011;61560;33.718;73.040;2022-08-07T12:52:26;27.33;;;16.67;;
73331;SDS011;61560;33.718;73.040;2022-08-07T12:58:34;25.40;;;15.25;;
73331;SDS011;61560;33.718;73.040;2022-08-07T15:26:15;32.50;;;17.85;;
73331;SDS011;61560;33.718;73.040;2022-08-07T15:28:47;30.30;;;16.75;;
73331;SDS011;61560;33.718;73.040;2022-08-07T15:31:19;27.67;;;16.45;;
73331;SDS011;61560;33.718;73.040;2022-08-07T15:33:50;33.73;;;18.23;;
73331;SDS011;61560;33.718;73.040;2022-08-07T15:36:23;32.40;;;17.80;;
73331;SDS011;61560;33.718;73.040;2022-08-07T15:38:51;28.00;;;17.65;;
73331;SDS011;61560;33.718;73.040;2022-08-07T15:41:22;30.60;;;18.30;;
73331;SDS011;61560;33.718;73.040;2022-08-07T15:43:58;30.80;;;19.40;;
73331;SDS011;61560;33.718;73.040;2022-08-07T15:46:32;30.15;;;17.52;;
73331;SDS011;61560;33.718;73.040;2022-08-07T15:49:00;38.63;;;19.30;;
73331;SDS011;61560;33.718;73.040;2022-08-07T15:51:30;34.13;;;19.17;;
73331;SDS011;61560;33.718;73.040;2022-08-07T15:53:59;36.75;;;20.70;;
73331;SDS011;61560;33.718;73.040;2022-08-07T15:56:33;39.75;;;21.20;;
73331;SDS011;61560;33.718;73.040;2022-08-07T15:59:06;38.65;;;22.27;;
73331;SDS011;61560;33.718;73.040;2022-08-07T16:01:38;39.25;;;22.40;;
73331;SDS011;61560;33.718;73.040;2022-08-07T16:04:10;40.50;;;23.23;;
73331;SDS011;61560;33.718;73.040;2022-08-07T16:06:43;45.00;;;23.98;;
73331;SDS011;61560;33.718;73.040;2022-08-07T16:11:56;43.47;;;24.25;;
73331;SDS011;61560;33.718;73.040;2022-08-07T16:25:53;40.88;;;24.50;;
73331;SDS011;61560;33.718;73.040;2022-08-07T16:34:06;43.58;;;24.85;;
73331;SDS011;61560;33.718;73.040;2022-08-07T16:39:53;47.90;;;24.42;;
73331;SDS011;61560;33.718;73.040;2022-08-07T16:56:49;38.78;;;22.30;;
73331;SDS011;61560;33.718;73.040;2022-08-07T16:59:53;37.50;;;21.13;;
73331;SDS011;61560;33.718;73.040;2022-08-07T17:07:57;34.20;;;21.33;;
73331;SDS011;61560;33.718;73.040;2022-08-07T17:10:28;37.50;;;21.38;;
73331;SDS011;61560;33.718;73.040;2022-08-07T17:13:02;40.75;;;21.33;;
73331;SDS011;61560;33.718;73.040;2022-08-07T17:15:34;48.58;;;24.10;;
73331;SDS011;61560;33.718;73.040;2022-08-07T17:20:40;48.08;;;25.90;;
73331;SDS011;61560;33.718;73.040;2022-08-07T17:26:00;43.90;;;23.48;;
73331;SDS011;61560;33.718;73.040;2022-08-07T17:28:45;45.95;;;24.60;;
73331;SDS011;61560;33.718;73.040;2022-08-07T17:34:18;41.20;;;22.98;;
73331;SDS011;61560;33.718;73.040;2022-08-07T17:37:02;36.97;;;20.98;;
73331;SDS011;61560;33.718;73.040;2022-08-07T17:44:57;38.20;;;21.05;;
73331;SDS011;61560;33.718;73.040;2022-08-07T17:50:00;41.33;;;22.92;;
73331;SDS011;61560;33.718;73.040;2022-08-07T17:55:07;38.17;;;20.67;;
73331;SDS011;61560;33.718;73.040;2022-08-07T18:00:27;37.15;;;21.30;;
73331;SDS011;61560;33.718;73.040;2022-08-07T18:03:30;31.20;;;18.42;;
73331;SDS011;61560;33.718;73.040;2022-08-07T18:05:52;41.53;;;22.63;;
73331;SDS011;61560;33.718;73.040;2022-08-07T18:08:30;39.97;;;21.63;;
73331;SDS011;61560;33.718;73.040;2022-08-07T18:11:09;41.00;;;23.60;;
73331;SDS011;61560;33.718;73.040;2022-08-07T18:21:55;46.55;;;24.48;;
73331;SDS011;61560;33.718;73.040;2022-08-07T18:30:05;42.47;;;22.55;;
73331;SDS011;61560;33.718;73.040;2022-08-07T18:32:39;45.80;;;23.15;;
73331;SDS011;61560;33.718;73.040;2022-08-07T18:46:21;46.80;;;22.75;;
73331;SDS011;61560;33.718;73.040;2022-08-07T18:52:06;37.85;;;21.48;;
73331;SDS011;61560;33.718;73.040;2022-08-07T19:00:20;35.83;;;20.00;;
73331;SDS011;61560;33.718;73.040;2022-08-07T19:06:13;43.80;;;23.10;;
73331;SDS011;61560;33.718;73.040;2022-08-07T19:11:26;45.42;;;23.17;;
73331;SDS011;61560;33.718;73.040;2022-08-07T19:14:13;39.55;;;21.00;;
73331;SDS011;61560;33.718;73.040;2022-08-07T19:19:28;38.00;;;20.75;;
73331;SDS011;61560;33.718;73.040;2022-08-07T19:22:13;37.30;;;20.08;;
73331;SDS011;61560;33.718;73.040;2022-08-07T19:24:49;37.55;;;21.10;;
73331;SDS011;61560;33.718;73.040;2022-08-07T19:27:25;41.08;;;21.60;;
73331;SDS011;61560;33.718;73.040;2022-08-07T19:30:03;36.03;;;20.15;;
73331;SDS011;61560;33.718;73.040;2022-08-07T19:32:34;38.05;;;19.73;;
73331;SDS011;61560;33.718;73.040;2022-08-07T19:35:09;35.78;;;19.98;;
73331;SDS011;61560;33.718;73.040;2022-08-07T19:37:42;37.22;;;19.38;;
73331;SDS011;61560;33.718;73.040;2022-08-07T19:40:13;37.22;;;19.55;;
73331;SDS011;61560;33.718;73.040;2022-08-07T19:42:43;38.83;;;19.45;;
73331;SDS011;61560;33.718;73.040;2022-08-07T19:45:19;38.38;;;19.15;;
73331;SDS011;61560;33.718;73.040;2022-08-07T19:47:50;35.22;;;20.15;;
73331;SDS011;61560;33.718;73.040;2022-08-07T19:50:18;39.83;;;20.40;;
73331;SDS011;61560;33.718;73.040;2022-08-07T19:52:48;37.78;;;21.33;;
73331;SDS011;61560;33.718;73.040;2022-08-07T19:55:18;40.28;;;20.77;;
73331;SDS011;61560;33.718;73.040;2022-08-07T19:57:51;34.38;;;19.48;;
73331;SDS011;61560;33.718;73.040;2022-08-07T20:00:23;41.03;;;22.08;;
73331;SDS011;61560;33.718;73.040;2022-08-07T20:02:52;34.15;;;20.38;;
73331;SDS011;61560;33.718;73.040;2022-08-07T20:05:25;35.38;;;20.35;;
73331;SDS011;61560;33.718;73.040;2022-08-07T20:08:03;33.30;;;20.05;;
73331;SDS011;61560;33.718;73.040;2022-08-07T20:13:05;36.17;;;19.75;;
73331;SDS011;61560;33.718;73.040;2022-08-07T20:15:34;36.80;;;20.05;;
73331;SDS011;61560;33.718;73.040;2022-08-07T20:18:03;38.33;;;21.10;;
73331;SDS011;61560;33.718;73.040;2022-08-07T20:20:33;29.80;;;16.88;;
73331;SDS011;61560;33.718;73.040;2022-08-07T20:23:06;35.95;;;19.85;;
73331;SDS011;61560;33.718;73.040;2022-08-07T20:25:35;36.65;;;20.05;;
73331;SDS011;61560;33.718;73.040;2022-08-07T20:28:04;31.83;;;19.15;;
73331;SDS011;61560;33.718;73.040;2022-08-07T20:30:38;31.50;;;18.33;;
73331;SDS011;61560;33.718;73.040;2022-08-07T20:33:08;35.40;;;19.10;;
73331;SDS011;61560;33.718;73.040;2022-08-07T20:35:40;37.20;;;19.05;;
73331;SDS011;61560;33.718;73.040;2022-08-07T20:38:11;33.22;;;18.73;;
73331;SDS011;61560;33.718;73.040;2022-08-07T20:40:46;29.95;;;17.13;;
73331;SDS011;61560;33.718;73.040;2022-08-07T20:43:16;31.08;;;16.58;;
73331;SDS011;61560;33.718;73.040;2022-08-07T20:45:51;30.95;;;17.70;;
73331;SDS011;61560;33.718;73.040;2022-08-07T20:48:22;34.75;;;18.90;;
73331;SDS011;61560;33.718;73.040;2022-08-07T20:50:55;33.42;;;16.42;;
73331;SDS011;61560;33.718;73.040;2022-08-07T20:53:26;36.15;;;18.00;;
73331;SDS011;61560;33.718;73.040;2022-08-07T20:55:56;32.63;;;17.83;;
73331;SDS011;61560;33.718;73.040;2022-08-07T20:58:30;39.95;;;17.95;;
73331;SDS011;61560;33.718;73.040;2022-08-07T21:01:10;32.03;;;17.60;;
73331;SDS011;61560;33.718;73.040;2022-08-07T21:03:39;30.60;;;16.85;;
73331;SDS011;61560;33.718;73.040;2022-08-07T21:06:10;33.13;;;18.65;;
73331;SDS011;61560;33.718;73.040;2022-08-07T21:08:42;30.33;;;16.95;;
73331;SDS011;61560;33.718;73.040;2022-08-07T21:11:12;33.58;;;18.17;;
73331;SDS011;61560;33.718;73.040;2022-08-07T21:13:46;29.27;;;17.55;;
73331;SDS011;61560;33.718;73.040;2022-08-07T21:16:16;32.10;;;17.60;;
73331;SDS011;61560;33.718;73.040;2022-08-07T21:18:45;33.50;;;18.42;;
73331;SDS011;61560;33.718;73.040;2022-08-07T21:21:17;30.15;;;17.30;;
73331;SDS011;61560;33.718;73.040;2022-08-07T21:29:25;33.83;;;18.75;;
73331;SDS011;61560;33.718;73.040;2022-08-07T21:32:00;29.73;;;17.05;;
73331;SDS011;61560;33.718;73.040;2022-08-07T21:45:22;37.20;;;18.20;;
73331;SDS011;61560;33.718;73.040;2022-08-07T21:50:45;33.67;;;16.10;;
73331;SDS011;61560;33.718;73.040;2022-08-07T21:53:19;32.22;;;16.52;;